• Join FlightAware (Why Join?)
  • Login
  • US Flag 
10:43AM EDT


 

Airport Tracker/Info


-or-


 

Live Flight TrackerFlight Track Log ✈ N606FT ✈ 12-Mar-2014 ✈ KTPF - KISM

Flight Track Log - Related Links

Times and Time Zones

All times are in EDT time to prevent confusion due to time zone crossing. See the N606FT flight status page for this flight to view local times or setup timezone preferences in your user account.

Time Position Orientation Groundspeed Altitude Reporting Facility
EDT Latitude Longitude Course Direction KTS MPH feet Rate Location/Type
06:28PM 27.9000 -82.3500 67° East 109 125 1,500  Level Tampa TRACON
06:29PM 27.9167 -82.3167 60° Northeast 105 121 2,000 360 Climbing Tampa TRACON
06:30PM 27.9167 -82.2833 90° East 109 125 2,300 -120 Climbing Tampa TRACON
06:31PM 27.9333 -82.2500 60° Northeast 130 150 1,800 -420 Descending Tampa TRACON
06:32PM 27.9667 -82.2167 41° Northeast 117 135 1,500 -120 Descending Tampa TRACON
06:33PM 28.0118 -82.1913 67° East  Level Estimated
06:33PM 27.9667 -82.1833 90° East 99 114 1,600  Level Tampa TRACON
06:34PM 27.9833 -82.1667 41° Northeast 104 120 1,500 -60 Descending Tampa TRACON
06:35PM 28.0000 -82.1333 60° Northeast 103 119 1,500  Level Tampa TRACON
06:36PM 28.0167 -82.1000 60° Northeast 112 129 1,500  Level Tampa TRACON
06:37PM 28.0333 -82.0667 60° Northeast 113 130 1,500  Level Tampa TRACON
06:38PM 28.0333 -82.0333 90° East 119 137 1,500  Level Tampa TRACON
06:39PM 28.0500 -82.0000 60° Northeast 111 128 1,500  Level Tampa TRACON
06:40PM 28.0667 -81.9833 41° Northeast 109 125 1,500  Level Tampa TRACON
06:41PM 28.0833 -81.9500 60° Northeast 111 128 1,500  Level Tampa TRACON
06:42PM 28.1167 -81.9167 41° Northeast 109 125 1,500  Level Tampa TRACON
06:43PM 28.1167 -81.8833 90° East 121 139 1,500  Level Tampa TRACON
06:44PM 28.1333 -81.8500 60° Northeast 115 132 1,500 -120 Level Tampa TRACON
06:44PM 28.1333 -81.8333 90° East 108 124 1,400  Descending Orlando TRACON
06:45PM 28.1333 -81.8167 90° East 115 132 1,500  Climbing Orlando TRACON
06:46PM 28.1333 -81.7667 90° East 125 144 1,400 -60 Descending Orlando TRACON
06:47PM 28.1333 -81.7333 90° East 120 138 1,400  Level Orlando TRACON
06:48PM 28.1333 -81.7000 90° East 116 133 1,400  Level Orlando TRACON
06:49PM 28.1333 -81.6667 90° East 118 136 1,400  Level Orlando TRACON
06:50PM 28.1500 -81.6333 60° Northeast 117 135 1,400  Level Orlando TRACON
06:51PM 28.1667 -81.6000 60° Northeast 115 132 1,400  Level Orlando TRACON
06:52PM 28.1833 -81.5833 41° Northeast 115 132 1,400 -60 Level Orlando TRACON
06:53PM 28.2000 -81.5500 60° Northeast 116 133 1,300 -60 Descending Orlando TRACON
06:54PM 28.2167 -81.5167 60° Northeast 110 127 1,300  Level Orlando TRACON
06:55PM 28.2333 -81.4833 60° Northeast 107 123 1,400 -300 Climbing Orlando TRACON
06:56PM 28.2500 -81.4500 60° Northeast 118 136 800 -480 Descending Orlando TRACON
06:57PM 28.2667 -81.4333 41° Northeast 101 116 500 -120 Descending Orlando TRACON
06:58PM 28.3000 -81.4333 360° North 65 75 500 120 Level Orlando TRACON
06:59PM 28.3000 -81.4333 270° West 90 104 800 180 Climbing Orlando TRACON
07:00PM 28.2833 -81.4167 139° Southeast 108 124 800  Level Orlando TRACON